createdAt,value
2023-05-07T00:00:22.017Z,101390.91
2023-05-07T00:02:48.934Z,101404.28
2023-05-07T00:05:16.176Z,101380.06
2023-05-07T00:07:43.012Z,101413.09
2023-05-07T00:10:11.773Z,101424.63
2023-05-07T00:12:38.995Z,101415.59
2023-05-07T00:15:06.995Z,101329.69
2023-05-07T00:17:34.316Z,101367.19
2023-05-07T00:20:00.997Z,101397.56
2023-05-07T00:22:27.618Z,101414.50
2023-05-07T00:24:54.150Z,101381.31
2023-05-07T00:27:20.715Z,101415.28
2023-05-07T00:29:47.375Z,101393.81
2023-05-07T00:32:14.124Z,101358.03
2023-05-07T00:34:41.201Z,101406.28
2023-05-07T00:37:10.680Z,101389.28
2023-05-07T00:39:37.214Z,101311.47
2023-05-07T00:42:04.343Z,101374.97
2023-05-07T00:44:30.907Z,101332.03
2023-05-07T00:46:58.832Z,101380.34
2023-05-07T00:49:39.528Z,101395.50
2023-05-07T00:52:08.312Z,101387.44
2023-05-07T00:54:35.658Z,101376.66
2023-05-07T00:57:04.473Z,101377.56
2023-05-07T00:59:32.757Z,101391.88
2023-05-07T01:02:00.268Z,101323.00
2023-05-07T01:04:27.664Z,101318.50
2023-05-07T01:07:01.217Z,101386.53
2023-05-07T01:09:29.429Z,101390.06
2023-05-07T01:11:58.488Z,101339.06
2023-05-07T01:14:26.633Z,101306.88
2023-05-07T01:16:54.298Z,101383.03
2023-05-07T01:19:23.118Z,101359.84
2023-05-07T01:21:50.102Z,101377.78
2023-05-07T01:24:19.315Z,101377.84
2023-05-07T01:26:46.021Z,101374.28
2023-05-07T01:29:14.951Z,101373.47
2023-05-07T01:31:44.068Z,101380.69
2023-05-07T01:34:14.006Z,101291.31
2023-05-07T01:36:43.840Z,101372.72
2023-05-07T01:39:11.640Z,101363.81
2023-05-07T01:41:38.255Z,101305.72
2023-05-07T01:44:06.454Z,101355.00
2023-05-07T01:46:33.869Z,101372.06
2023-05-07T01:49:00.536Z,101362.19
2023-05-07T01:51:28.101Z,101365.81
2023-05-07T01:53:55.689Z,101378.41
2023-05-07T01:56:23.249Z,101369.47
2023-05-07T01:58:52.105Z,101310.50
2023-05-07T02:01:19.253Z,101347.22
2023-05-07T02:03:46.347Z,101375.84
2023-05-07T02:06:20.849Z,101295.34
2023-05-07T02:08:48.337Z,101292.69
2023-05-07T02:11:16.150Z,101354.41
2023-05-07T02:13:42.776Z,101365.16
2023-05-07T02:16:09.573Z,101283.78
2023-05-07T02:18:36.895Z,101350.91
2023-05-07T02:21:03.727Z,101351.78
2023-05-07T02:23:31.716Z,101347.31
2023-05-07T02:25:58.243Z,101355.34
2023-05-07T02:28:25.268Z,101304.44
2023-05-07T02:30:59.408Z,101275.78
2023-05-07T02:33:25.984Z,101308.00
2023-05-07T02:35:52.942Z,101345.56
2023-05-07T02:38:19.550Z,101352.69
2023-05-07T02:40:46.076Z,101354.47
2023-05-07T02:43:12.754Z,101276.69
2023-05-07T02:45:44.181Z,101347.31
2023-05-07T02:48:11.781Z,101330.38
2023-05-07T02:50:38.428Z,101359.84
2023-05-07T02:53:05.021Z,101334.78
2023-05-07T02:55:32.239Z,101357.16
2023-05-07T02:57:58.786Z,101330.34
2023-05-07T03:00:26.366Z,101300.84
2023-05-07T03:03:03.187Z,101353.59
2023-05-07T03:05:30.011Z,101358.03
2023-05-07T03:07:56.549Z,101368.75
2023-05-07T03:10:23.076Z,101352.66
2023-05-07T03:12:49.604Z,101362.47
2023-05-07T03:15:17.849Z,101265.00
2023-05-07T03:17:44.532Z,101304.38
2023-05-07T03:20:12.065Z,101354.38
2023-05-07T03:22:39.833Z,101254.25
2023-05-07T03:25:08.077Z,101363.34
2023-05-07T03:27:34.680Z,101365.13
2023-05-07T03:30:01.888Z,101353.50
2023-05-07T03:32:28.710Z,101366.03
2023-05-07T03:34:55.291Z,101358.88
2023-05-07T03:37:22.807Z,101373.19
2023-05-07T03:39:49.732Z,101376.75
2023-05-07T03:42:16.856Z,101382.09
2023-05-07T03:44:43.440Z,101353.50
2023-05-07T03:47:11.266Z,101374.97
2023-05-07T03:49:38.517Z,101337.47
2023-05-07T03:52:06.500Z,101369.63
2023-05-07T03:54:33.904Z,101357.13
2023-05-07T03:57:00.677Z,101354.44
2023-05-07T03:59:27.738Z,101349.97
2023-05-07T04:01:56.027Z,101374.13
2023-05-07T04:04:24.614Z,101338.41
2023-05-07T04:06:51.247Z,101304.44
2023-05-07T04:09:17.779Z,101354.47
2023-05-07T04:11:46.366Z,101377.66
2023-05-07T04:14:12.959Z,101307.06
2023-05-07T04:16:39.895Z,101375.00
2023-05-07T04:19:08.079Z,101380.38
2023-05-07T04:21:35.331Z,101364.28
2023-05-07T04:24:04.416Z,101257.84
2023-05-07T04:26:31.168Z,101388.38
2023-05-07T04:29:00.010Z,101380.31
2023-05-07T04:31:31.600Z,101366.94
2023-05-07T04:33:59.053Z,101386.59
2023-05-07T04:36:28.436Z,101376.78
2023-05-07T04:39:00.072Z,101377.66
2023-05-07T04:41:27.517Z,101298.09
2023-05-07T04:43:54.361Z,101316.00
2023-05-07T04:46:23.397Z,101374.13
2023-05-07T04:48:50.211Z,101391.09
2023-05-07T04:51:17.019Z,101366.97
2023-05-07T04:53:44.178Z,101384.88
2023-05-07T04:56:11.133Z,101314.25
2023-05-07T04:58:41.580Z,101400.94
2023-05-07T05:01:09.172Z,101378.66
2023-05-07T05:03:35.932Z,101386.72
2023-05-07T05:06:02.955Z,101366.13
2023-05-07T05:08:33.057Z,101317.91
2023-05-07T05:11:02.905Z,101398.38
2023-05-07T05:13:31.378Z,101389.47
2023-05-07T05:15:58.411Z,101330.50
2023-05-07T05:18:26.690Z,101287.59
2023-05-07T05:20:53.247Z,101407.41
2023-05-07T05:23:20.850Z,101392.22
2023-05-07T05:25:47.944Z,101403.00
2023-05-07T05:28:14.873Z,101388.72
2023-05-07T05:30:41.740Z,101398.56
2023-05-07T05:33:09.273Z,101414.66
2023-05-07T05:35:36.555Z,101351.25
2023-05-07T05:38:05.745Z,101418.28
2023-05-07T05:40:34.367Z,101423.66
2023-05-07T05:43:01.318Z,101338.81
2023-05-07T05:45:28.368Z,101414.78
2023-05-07T05:47:57.632Z,101424.59
2023-05-07T05:50:24.658Z,101428.22
2023-05-07T05:52:52.702Z,101439.81
2023-05-07T05:55:20.840Z,101358.50
2023-05-07T05:57:47.585Z,101431.72
2023-05-07T06:00:14.853Z,101434.38
2023-05-07T06:02:47.432Z,101424.56
2023-05-07T06:05:20.448Z,101379.03
2023-05-07T06:07:50.988Z,101443.34
2023-05-07T06:10:18.075Z,101328.13
2023-05-07T06:12:45.443Z,101418.34
2023-05-07T06:15:12.106Z,101366.56
2023-05-07T06:17:39.593Z,101436.19
2023-05-07T06:20:07.909Z,101429.03
2023-05-07T06:22:34.476Z,101369.22
2023-05-07T06:25:01.857Z,101429.91
2023-05-07T06:27:29.116Z,101419.19
2023-05-07T06:29:56.336Z,101442.41
2023-05-07T06:32:22.981Z,101421.88
2023-05-07T06:34:50.740Z,101444.13
2023-05-07T06:37:17.464Z,101441.44
2023-05-07T06:39:52.748Z,101414.63
2023-05-07T06:42:19.382Z,101444.97
2023-05-07T06:44:48.373Z,101423.50
2023-05-07T06:47:17.207Z,101452.06
2023-05-07T06:49:46.787Z,101428.84
2023-05-07T06:52:16.524Z,101450.25
2023-05-07T06:54:43.374Z,101457.34
2023-05-07T06:57:10.443Z,101460.91
2023-05-07T06:59:37.024Z,101453.69
2023-05-07T07:02:03.627Z,101461.63
2023-05-07T07:04:31.083Z,101397.34
2023-05-07T07:07:05.146Z,101441.97
2023-05-07T07:09:32.242Z,101463.38
2023-05-07T07:12:00.840Z,101471.38
2023-05-07T07:14:28.064Z,101464.22
2023-05-07T07:16:55.197Z,101478.56
2023-05-07T07:19:23.467Z,101476.69
2023-05-07T07:21:53.119Z,101470.34
2023-05-07T07:24:22.193Z,101471.09
2023-05-07T07:26:52.860Z,101436.34
2023-05-07T07:29:20.987Z,101463.16
2023-05-07T07:31:49.867Z,101407.78
2023-05-07T07:34:17.465Z,101451.44
2023-05-07T07:36:46.803Z,101461.13
2023-05-07T07:39:16.941Z,101445.06
2023-05-07T07:41:44.669Z,101457.47
2023-05-07T07:44:16.080Z,101470.78
2023-05-07T07:46:44.650Z,101474.34
2023-05-07T07:49:11.224Z,101452.13
2023-05-07T07:51:37.790Z,101458.44
2023-05-07T07:54:04.740Z,101439.59
2023-05-07T07:56:34.640Z,101452.84
2023-05-07T07:59:02.680Z,101417.03
2023-05-07T08:01:31.392Z,101464.25
2023-05-07T08:04:04.177Z,101489.09
2023-05-07T08:06:33.656Z,101473.00
2023-05-07T08:09:00.311Z,101460.44
2023-05-07T08:11:27.226Z,101470.03
2023-05-07T08:13:56.065Z,101468.94
2023-05-07T08:16:24.155Z,101476.69
2023-05-07T08:18:52.203Z,101417.47
2023-05-07T08:21:18.801Z,101477.72
2023-05-07T08:23:45.657Z,101482.53
2023-05-07T08:26:12.342Z,101488.44
2023-05-07T08:28:38.891Z,101432.16
2023-05-07T08:31:05.533Z,101491.50
2023-05-07T08:33:35.954Z,101477.19
2023-05-07T08:36:02.557Z,101491.75
2023-05-07T08:38:29.717Z,101491.00
2023-05-07T08:40:56.344Z,101447.00
2023-05-07T08:43:27.242Z,101445.28
2023-05-07T08:46:02.514Z,101483.31
2023-05-07T08:48:33.688Z,101432.91
2023-05-07T08:51:07.315Z,101417.66
2023-05-07T08:53:34.608Z,101480.50
2023-05-07T08:56:02.050Z,101483.91
2023-05-07T08:58:29.646Z,101470.50
2023-05-07T09:00:56.970Z,101484.13
2023-05-07T09:03:24.336Z,101476.13
2023-05-07T09:05:53.577Z,101486.31
2023-05-07T09:08:26.004Z,101428.81
2023-05-07T09:10:54.621Z,101490.97
2023-05-07T09:13:22.702Z,101490.13
2023-05-07T09:15:50.427Z,101428.00
2023-05-07T09:18:17.403Z,101485.28
2023-05-07T09:20:47.172Z,101481.22
2023-05-07T09:23:14.962Z,101470.94
2023-05-07T09:25:43.523Z,101329.41
2023-05-07T09:28:16.497Z,101494.47
2023-05-07T09:30:43.114Z,101487.50
2023-05-07T09:33:12.369Z,101483.34
2023-05-07T09:35:42.710Z,101469.56
2023-05-07T09:38:15.074Z,101493.97
2023-05-07T09:40:41.927Z,101481.97
2023-05-07T09:43:14.975Z,101478.13
2023-05-07T09:45:58.786Z,101482.13
2023-05-07T09:48:28.459Z,101481.31
2023-05-07T09:51:00.708Z,101473.66
2023-05-07T09:53:32.073Z,101476.84
2023-05-07T09:56:04.464Z,101383.34
2023-05-07T09:58:33.314Z,101480.13
2023-05-07T10:01:01.950Z,101409.09
2023-05-07T10:03:33.139Z,101420.94
2023-05-07T10:06:05.663Z,101483.56
2023-05-07T10:08:32.647Z,101475.72
2023-05-07T10:11:02.785Z,101455.50
2023-05-07T10:13:30.452Z,101473.75
2023-05-07T10:15:59.389Z,101471.72
2023-05-07T10:18:33.813Z,101480.06
2023-05-07T10:21:16.947Z,101465.06
2023-05-07T10:23:49.967Z,101466.31
2023-05-07T10:26:19.243Z,101474.75
2023-05-07T10:28:51.852Z,101473.38
2023-05-07T10:31:45.841Z,101475.78
2023-05-07T10:34:17.676Z,101466.16
2023-05-07T10:36:45.856Z,101474.69
2023-05-07T10:39:14.362Z,101485.78
2023-05-07T10:41:41.511Z,101463.16
2023-05-07T10:44:08.657Z,101469.44
2023-05-07T10:46:37.893Z,101469.06
2023-05-07T10:49:12.844Z,101486.63
2023-05-07T10:52:17.505Z,101480.19
2023-05-07T10:55:16.170Z,101496.03
2023-05-07T10:57:44.946Z,101463.50
2023-05-07T11:03:02.978Z,101480.88
2023-05-07T11:05:38.519Z,101463.75
2023-05-07T11:08:17.891Z,101477.31
2023-05-07T11:10:56.046Z,101461.34
2023-05-07T11:14:01.119Z,101481.66
2023-05-07T11:16:42.593Z,101475.22
2023-05-07T11:19:51.996Z,101468.47
2023-05-07T11:22:38.056Z,101461.84
2023-05-07T11:25:11.547Z,101456.72
2023-05-07T11:27:39.033Z,101453.75
2023-05-07T11:30:06.354Z,101407.66
2023-05-07T11:32:33.525Z,101463.50
2023-05-07T11:35:02.064Z,101478.25
2023-05-07T11:37:30.813Z,101452.94
2023-05-07T11:40:07.483Z,101475.91
2023-05-07T11:42:42.056Z,101457.13
2023-05-07T11:45:09.703Z,101406.47
2023-05-07T11:47:36.504Z,101478.53
2023-05-07T11:50:09.191Z,101466.69
2023-05-07T11:52:36.560Z,101455.28
2023-05-07T11:55:05.263Z,101480.09
2023-05-07T11:57:34.163Z,101467.50
2023-05-07T12:00:03.076Z,101461.72
2023-05-07T12:02:39.669Z,101441.31
2023-05-07T12:05:07.833Z,101413.84
2023-05-07T12:07:35.765Z,101474.88
2023-05-07T12:10:08.878Z,101460.03
2023-05-07T12:12:47.338Z,101472.84
2023-05-07T12:15:17.200Z,101439.16
2023-05-07T12:17:44.397Z,101403.28
2023-05-07T12:20:11.515Z,101479.13
2023-05-07T12:22:38.280Z,101468.69
2023-05-07T12:25:05.364Z,101416.78
2023-05-07T12:27:32.057Z,101476.84
2023-05-07T12:30:00.235Z,101461.31
2023-05-07T12:32:26.953Z,101403.47
2023-05-07T12:34:53.580Z,101477.69
2023-05-07T12:37:27.849Z,101483.22
2023-05-07T12:40:10.040Z,101474.34
2023-05-07T12:42:37.921Z,101489.97
2023-05-07T12:45:12.719Z,101485.41
2023-05-07T12:47:46.565Z,101479.59
2023-05-07T12:52:58.741Z,101488.25
2023-05-07T12:55:25.344Z,101481.78
2023-05-07T12:57:53.672Z,101492.41
2023-05-07T13:00:39.971Z,101492.97
2023-05-07T13:03:06.770Z,101490.53
2023-05-07T13:05:33.615Z,101485.53
2023-05-07T13:08:00.405Z,101462.44
2023-05-07T13:10:28.139Z,101491.94
2023-05-07T13:12:54.808Z,101481.69
2023-05-07T13:15:22.636Z,101489.19
2023-05-07T13:17:49.325Z,101479.16
2023-05-07T13:20:16.469Z,101411.31
2023-05-07T13:22:43.174Z,101496.72
2023-05-07T13:25:10.291Z,101450.72
2023-05-07T13:27:37.877Z,101485.66
2023-05-07T13:30:06.447Z,101522.59
2023-05-07T13:32:33.185Z,101499.78
2023-05-07T13:34:59.777Z,101504.44
2023-05-07T13:37:26.343Z,101441.75
2023-05-07T13:39:52.928Z,101467.84
2023-05-07T13:42:19.546Z,101491.34
2023-05-07T13:44:46.353Z,101486.44
2023-05-07T13:47:12.997Z,101520.47
2023-05-07T13:49:39.548Z,101502.97
2023-05-07T13:52:07.622Z,101503.06
2023-05-07T13:54:34.284Z,101506.91
2023-05-07T13:57:01.370Z,101494.59
2023-05-07T13:59:28.060Z,101527.75
2023-05-07T14:01:55.760Z,101490.28
2023-05-07T14:04:22.403Z,101514.56
2023-05-07T14:06:48.944Z,101518.28
2023-05-07T14:09:15.565Z,101502.53
2023-05-07T14:11:42.514Z,101471.56
2023-05-07T14:14:11.678Z,101498.28
2023-05-07T14:16:38.777Z,101506.47
2023-05-07T14:19:05.386Z,101536.41
2023-05-07T14:21:32.415Z,101529.03
2023-05-07T14:23:59.060Z,101531.16
2023-05-07T14:26:27.875Z,101551.56
2023-05-07T14:28:55.942Z,101562.84
2023-05-07T14:31:22.607Z,101534.94
2023-05-07T14:33:50.816Z,101539.75
2023-05-07T14:36:18.257Z,101561.56
2023-05-07T14:38:44.899Z,101558.34
2023-05-07T14:41:12.548Z,101509.66
2023-05-07T14:43:39.225Z,101587.66
2023-05-07T14:46:05.914Z,101587.88
2023-05-07T14:48:33.463Z,101582.69
2023-05-07T14:51:00.264Z,101549.69
2023-05-07T14:53:27.876Z,101582.78
2023-05-07T14:55:55.188Z,101597.09
2023-05-07T14:58:21.753Z,101544.34
2023-05-07T15:00:48.339Z,101591.75
2023-05-07T15:03:15.196Z,101468.44
2023-05-07T15:05:43.903Z,101589.97
2023-05-07T15:08:10.570Z,101522.06
2023-05-07T15:10:42.199Z,101587.31
2023-05-07T15:13:15.340Z,101607.88
2023-05-07T15:15:44.782Z,101543.44
2023-05-07T15:18:11.434Z,101598.94
2023-05-07T15:20:38.177Z,101588.19
2023-05-07T15:23:06.766Z,101588.19
2023-05-07T15:25:34.757Z,101583.69
2023-05-07T15:28:01.515Z,101589.06
2023-05-07T15:30:28.273Z,101605.16
2023-05-07T15:32:54.947Z,101614.09
2023-05-07T15:35:22.918Z,101615.88
2023-05-07T15:37:53.700Z,101598.00
2023-05-07T15:40:20.392Z,101519.25
2023-05-07T15:42:47.315Z,101584.59
2023-05-07T15:45:14.280Z,101529.13
2023-05-07T15:47:41.602Z,101584.63
2023-05-07T15:50:08.855Z,101588.22
2023-05-07T15:52:35.859Z,101600.72
2023-05-07T15:55:03.471Z,101615.94
2023-05-07T15:57:30.137Z,101524.66
2023-05-07T15:59:56.745Z,101592.69
2023-05-07T16:02:23.351Z,101584.63
2023-05-07T16:04:50.001Z,101603.44
2023-05-07T16:07:16.550Z,101597.16
2023-05-07T16:09:43.131Z,101570.34
2023-05-07T16:12:09.787Z,101573.91
2023-05-07T16:14:36.304Z,101595.34
2023-05-07T16:17:03.087Z,101604.25
2023-05-07T16:19:30.725Z,101592.63
2023-05-07T16:21:57.850Z,101597.09
2023-05-07T16:24:24.543Z,101589.94
2023-05-07T16:26:51.129Z,101585.44
2023-05-07T16:29:17.898Z,101600.59
2023-05-07T16:31:44.603Z,101593.44
2023-05-07T16:34:11.295Z,101613.09
2023-05-07T16:36:38.876Z,101618.44
2023-05-07T16:39:05.709Z,101589.81
2023-05-07T16:41:32.875Z,101544.25
2023-05-07T16:43:59.458Z,101617.50
2023-05-07T16:46:26.433Z,101609.50
2023-05-07T16:48:54.072Z,101611.28
2023-05-07T16:51:21.995Z,101634.56
2023-05-07T16:53:48.901Z,101638.13
2023-05-07T16:56:15.736Z,101625.66
2023-05-07T16:58:42.436Z,101556.84
2023-05-07T17:01:11.438Z,101628.38
2023-05-07T17:03:38.493Z,101620.34
2023-05-07T17:06:12.855Z,101643.59
2023-05-07T17:08:42.120Z,101625.72
2023-05-07T17:11:09.426Z,101617.69
2023-05-07T17:13:37.082Z,101659.75
2023-05-07T17:16:03.940Z,101625.75
2023-05-07T17:18:30.655Z,101621.25
2023-05-07T17:20:57.343Z,101626.66
2023-05-07T17:23:23.959Z,101559.59
2023-05-07T17:25:50.799Z,101636.50
2023-05-07T17:28:17.498Z,101563.19
2023-05-07T17:30:46.433Z,101613.22
2023-05-07T17:33:20.985Z,101620.38
2023-05-07T17:35:49.581Z,101643.63
2023-05-07T17:38:17.275Z,101615.91
2023-05-07T17:40:43.922Z,101611.47
2023-05-07T17:43:10.602Z,101606.09
2023-05-07T17:45:37.317Z,101652.59
2023-05-07T17:48:05.062Z,101626.69
2023-05-07T17:50:32.984Z,101640.09
2023-05-07T17:52:59.650Z,101662.47
2023-05-07T17:55:26.487Z,101664.25
2023-05-07T17:57:53.140Z,101656.19
2023-05-07T18:00:20.121Z,101648.13
2023-05-07T18:02:46.835Z,101687.50
2023-05-07T18:05:13.570Z,101660.66
2023-05-07T18:07:41.296Z,101684.81
2023-05-07T18:10:08.323Z,101653.50
2023-05-07T18:12:35.681Z,101625.75
2023-05-07T18:15:02.632Z,101622.19
2023-05-07T18:17:29.294Z,101683.03
2023-05-07T18:19:56.214Z,101674.09
2023-05-07T18:22:22.871Z,101654.38
2023-05-07T18:24:49.722Z,101666.03
2023-05-07T18:27:16.353Z,101687.50
2023-05-07T18:29:42.975Z,101621.25
2023-05-07T18:32:10.660Z,101674.06
2023-05-07T18:34:37.350Z,101647.22
2023-05-07T18:37:03.997Z,101651.69
2023-05-07T18:39:31.794Z,101697.31
2023-05-07T18:41:58.828Z,101691.03
2023-05-07T18:44:25.457Z,101658.78
2023-05-07T18:46:52.058Z,101674.88
2023-05-07T18:49:19.076Z,101639.03
2023-05-07T18:51:45.694Z,101674.88
2023-05-07T18:54:12.403Z,101653.34
2023-05-07T18:56:41.603Z,101666.75
2023-05-07T18:59:08.214Z,101669.44
2023-05-07T19:01:35.822Z,101684.69
2023-05-07T19:04:02.783Z,101672.97
2023-05-07T19:06:31.781Z,101640.75
2023-05-07T19:09:00.078Z,101657.75
2023-05-07T19:11:26.984Z,101682.81
2023-05-07T19:13:53.740Z,101672.94
2023-05-07T19:16:20.533Z,101695.34
2023-05-07T19:18:47.914Z,101691.75
2023-05-07T19:21:14.486Z,101657.69
2023-05-07T19:23:44.193Z,101663.03
2023-05-07T19:26:12.228Z,101616.47
2023-05-07T19:28:45.263Z,101629.00
2023-05-07T19:31:22.451Z,101681.81
2023-05-07T19:33:49.451Z,101685.38
2023-05-07T19:36:17.300Z,101688.03
2023-05-07T19:38:44.999Z,101674.59
2023-05-07T19:41:14.545Z,101694.28
2023-05-07T19:43:41.733Z,101694.28
2023-05-07T19:46:08.511Z,101713.06
2023-05-07T19:48:35.193Z,101623.47
2023-05-07T19:51:01.955Z,101707.66
2023-05-07T19:53:30.156Z,101737.22
2023-05-07T19:56:04.489Z,101746.13
2023-05-07T19:58:31.373Z,101669.91
2023-05-07T20:00:57.996Z,101754.09
2023-05-07T20:03:24.837Z,101757.72
2023-05-07T20:05:51.765Z,101688.72
2023-05-07T20:08:18.504Z,101738.06
2023-05-07T20:10:45.384Z,101740.75
2023-05-07T20:13:12.286Z,101730.88
2023-05-07T20:15:39.358Z,101732.63
2023-05-07T20:18:06.097Z,101738.00
2023-05-07T20:20:32.835Z,101716.47
2023-05-07T20:22:59.775Z,101768.41
2023-05-07T20:25:26.669Z,101737.91
2023-05-07T20:27:54.132Z,101751.38
2023-05-07T20:30:23.562Z,101771.13
2023-05-07T20:32:50.805Z,101682.44
2023-05-07T20:35:17.561Z,101776.50
2023-05-07T20:37:44.140Z,101747.78
2023-05-07T20:40:11.575Z,101754.03
2023-05-07T20:42:38.583Z,101786.28
2023-05-07T20:45:06.161Z,101750.47
2023-05-07T20:47:33.882Z,101778.25
2023-05-07T20:50:00.614Z,101774.69
2023-05-07T20:52:27.198Z,101762.13
2023-05-07T20:54:53.904Z,101752.25
2023-05-07T20:57:20.573Z,101731.59
2023-05-07T20:59:47.141Z,101754.88
2023-05-07T21:02:13.903Z,101693.88
2023-05-07T21:04:40.614Z,101741.38
2023-05-07T21:07:08.406Z,101790.66
2023-05-07T21:09:35.535Z,101759.28
2023-05-07T21:12:03.015Z,101800.50
2023-05-07T21:14:29.765Z,101766.47
2023-05-07T21:16:56.503Z,101784.34
2023-05-07T21:19:23.165Z,101771.81
2023-05-07T21:21:49.761Z,101791.53
2023-05-07T21:24:16.401Z,101774.50
2023-05-07T21:26:44.064Z,101796.91
2023-05-07T21:29:10.665Z,101804.00
2023-05-07T21:31:37.397Z,101803.09
2023-05-07T21:34:04.076Z,101766.31
2023-05-07T21:36:31.394Z,101786.03
2023-05-07T21:38:58.081Z,101799.53
2023-05-07T21:41:24.745Z,101799.53
2023-05-07T21:43:53.333Z,101760.97
2023-05-07T21:46:19.930Z,101798.63
2023-05-07T21:48:46.624Z,101775.28
2023-05-07T21:51:13.356Z,101778.00
2023-05-07T21:53:40.218Z,101759.13
2023-05-07T21:56:07.034Z,101771.59
2023-05-07T21:58:33.810Z,101776.06
2023-05-07T22:01:01.350Z,101769.78
2023-05-07T22:03:28.258Z,101794.88
2023-05-07T22:05:54.940Z,101810.16
2023-05-07T22:08:23.356Z,101765.31
2023-05-07T22:10:50.634Z,101775.13
2023-05-07T22:13:17.337Z,101716.84
2023-05-07T22:15:56.126Z,101790.38
2023-05-07T22:18:23.758Z,101791.28
2023-05-07T22:20:53.524Z,101778.72
2023-05-07T22:23:20.242Z,101801.97
2023-05-07T22:25:46.944Z,101773.28
2023-05-07T22:28:13.631Z,101740.09
2023-05-07T22:30:40.541Z,101815.44
2023-05-07T22:33:08.515Z,101794.81
2023-05-07T22:35:35.262Z,101784.94
2023-05-07T22:38:02.021Z,101811.88
2023-05-07T22:40:28.670Z,101783.13
2023-05-07T22:42:55.334Z,101786.75
2023-05-07T22:45:22.222Z,101801.97
2023-05-07T22:47:49.949Z,101804.72
2023-05-07T22:50:16.615Z,101826.25
2023-05-07T22:52:44.206Z,101787.69
2023-05-07T22:55:10.870Z,101796.63
2023-05-07T22:57:37.492Z,101820.81
2023-05-07T23:00:05.071Z,101744.56
2023-05-07T23:02:32.513Z,101778.66
2023-05-07T23:05:00.959Z,101784.06
2023-05-07T23:07:28.529Z,101793.03
2023-05-07T23:09:55.353Z,101825.31
2023-05-07T23:12:22.093Z,101808.25
2023-05-07T23:14:48.716Z,101807.34
2023-05-07T23:17:15.326Z,101794.81
2023-05-07T23:19:41.929Z,101737.44
2023-05-07T23:22:12.246Z,101811.88
2023-05-07T23:24:39.875Z,101805.53
2023-05-07T23:27:08.308Z,101819.94
2023-05-07T23:29:35.438Z,101837.81
2023-05-07T23:32:02.257Z,101803.72
2023-05-07T23:34:28.835Z,101813.63
2023-05-07T23:36:56.500Z,101806.47
2023-05-07T23:39:23.103Z,101823.56
2023-05-07T23:41:50.669Z,101784.06
2023-05-07T23:44:17.416Z,101814.59
2023-05-07T23:46:44.738Z,101802.91
2023-05-07T23:49:11.536Z,101816.34
2023-05-07T23:51:38.144Z,101835.16
2023-05-07T23:54:05.134Z,101782.22
2023-05-07T23:56:32.186Z,101794.75
2023-05-07T23:58:59.463Z,101809.09
